sensor_id;sensor_type;location;lat;lon;timestamp;P1;durP1;ratioP1;P2;durP2;ratioP2
31061;SDS011;17724;53.546;9.974;2022-07-29T00:00:16;9.00;;;2.40;;
31061;SDS011;17724;53.546;9.974;2022-07-29T00:04:16;7.10;;;1.53;;
31061;SDS011;17724;53.546;9.974;2022-07-29T00:08:16;7.40;;;1.80;;
31061;SDS011;17724;53.546;9.974;2022-07-29T00:12:17;7.00;;;1.50;;
31061;SDS011;17724;53.546;9.974;2022-07-29T00:16:19;7.70;;;1.57;;
31061;SDS011;17724;53.546;9.974;2022-07-29T00:20:19;7.70;;;1.60;;
31061;SDS011;17724;53.546;9.974;2022-07-29T00:24:20;7.40;;;1.70;;
31061;SDS011;17724;53.546;9.974;2022-07-29T00:28:20;6.90;;;1.50;;
31061;SDS011;17724;53.546;9.974;2022-07-29T00:32:20;7.10;;;1.63;;
31061;SDS011;17724;53.546;9.974;2022-07-29T00:36:21;6.83;;;1.60;;
31061;SDS011;17724;53.546;9.974;2022-07-29T00:40:22;8.33;;;1.90;;
31061;SDS011;17724;53.546;9.974;2022-07-29T00:44:22;7.93;;;1.60;;
31061;SDS011;17724;53.546;9.974;2022-07-29T00:48:23;8.47;;;1.70;;
31061;SDS011;17724;53.546;9.974;2022-07-29T00:52:23;7.80;;;1.70;;
31061;SDS011;17724;53.546;9.974;2022-07-29T00:56:23;7.00;;;1.93;;
31061;SDS011;17724;53.546;9.974;2022-07-29T01:00:25;8.17;;;1.90;;
31061;SDS011;17724;53.546;9.974;2022-07-29T01:04:28;9.50;;;1.90;;
31061;SDS011;17724;53.546;9.974;2022-07-29T01:08:29;7.90;;;1.60;;
31061;SDS011;17724;53.546;9.974;2022-07-29T01:12:32;8.87;;;2.00;;
31061;SDS011;17724;53.546;9.974;2022-07-29T01:16:37;9.37;;;2.50;;
31061;SDS011;17724;53.546;9.974;2022-07-29T01:29:45;8.60;;;2.10;;
31061;SDS011;17724;53.546;9.974;2022-07-29T01:33:58;7.80;;;2.10;;
31061;SDS011;17724;53.546;9.974;2022-07-29T01:38:12;9.10;;;2.10;;
31061;SDS011;17724;53.546;9.974;2022-07-29T01:46:34;7.77;;;2.00;;
31061;SDS011;17724;53.546;9.974;2022-07-29T01:50:38;7.70;;;2.17;;
31061;SDS011;17724;53.546;9.974;2022-07-29T01:54:47;8.50;;;1.87;;
31061;SDS011;17724;53.546;9.974;2022-07-29T01:58:52;9.60;;;2.00;;
31061;SDS011;17724;53.546;9.974;2022-07-29T02:02:54;9.43;;;2.03;;
31061;SDS011;17724;53.546;9.974;2022-07-29T02:06:57;8.80;;;2.50;;
31061;SDS011;17724;53.546;9.974;2022-07-29T02:11:01;8.20;;;2.03;;
31061;SDS011;17724;53.546;9.974;2022-07-29T02:15:04;7.77;;;2.10;;
31061;SDS011;17724;53.546;9.974;2022-07-29T02:19:07;7.23;;;1.50;;
31061;SDS011;17724;53.546;9.974;2022-07-29T02:23:10;8.07;;;1.80;;
31061;SDS011;17724;53.546;9.974;2022-07-29T02:27:12;8.83;;;2.10;;
31061;SDS011;17724;53.546;9.974;2022-07-29T02:31:15;8.00;;;2.40;;
31061;SDS011;17724;53.546;9.974;2022-07-29T02:35:18;8.53;;;2.47;;
31061;SDS011;17724;53.546;9.974;2022-07-29T02:39:21;8.20;;;2.30;;
31061;SDS011;17724;53.546;9.974;2022-07-29T02:43:23;8.50;;;2.20;;
31061;SDS011;17724;53.546;9.974;2022-07-29T02:47:30;8.17;;;1.97;;
31061;SDS011;17724;53.546;9.974;2022-07-29T02:51:40;7.50;;;1.63;;
31061;SDS011;17724;53.546;9.974;2022-07-29T02:55:46;9.30;;;2.43;;
31061;SDS011;17724;53.546;9.974;2022-07-29T02:59:51;7.80;;;2.27;;
31061;SDS011;17724;53.546;9.974;2022-07-29T03:03:57;7.00;;;1.73;;
31061;SDS011;17724;53.546;9.974;2022-07-29T03:08:02;8.30;;;1.90;;
31061;SDS011;17724;53.546;9.974;2022-07-29T03:12:05;9.33;;;2.20;;
31061;SDS011;17724;53.546;9.974;2022-07-29T03:16:07;9.30;;;2.33;;
31061;SDS011;17724;53.546;9.974;2022-07-29T03:20:08;7.50;;;1.97;;
31061;SDS011;17724;53.546;9.974;2022-07-29T03:24:22;7.33;;;1.73;;
31061;SDS011;17724;53.546;9.974;2022-07-29T03:28:24;10.53;;;2.70;;
31061;SDS011;17724;53.546;9.974;2022-07-29T03:32:27;8.20;;;2.17;;
31061;SDS011;17724;53.546;9.974;2022-07-29T03:36:27;8.53;;;2.10;;
31061;SDS011;17724;53.546;9.974;2022-07-29T03:40:31;8.63;;;1.90;;
31061;SDS011;17724;53.546;9.974;2022-07-29T03:44:35;8.10;;;1.80;;
31061;SDS011;17724;53.546;9.974;2022-07-29T03:48:38;9.07;;;2.93;;
31061;SDS011;17724;53.546;9.974;2022-07-29T03:52:42;9.17;;;1.90;;
31061;SDS011;17724;53.546;9.974;2022-07-29T03:56:43;13.97;;;4.37;;
31061;SDS011;17724;53.546;9.974;2022-07-29T04:00:47;6.90;;;1.70;;
31061;SDS011;17724;53.546;9.974;2022-07-29T04:04:48;8.90;;;2.67;;
31061;SDS011;17724;53.546;9.974;2022-07-29T04:08:48;8.00;;;2.30;;
31061;SDS011;17724;53.546;9.974;2022-07-29T04:12:49;9.63;;;3.70;;
31061;SDS011;17724;53.546;9.974;2022-07-29T04:16:50;8.40;;;2.47;;
31061;SDS011;17724;53.546;9.974;2022-07-29T04:20:50;8.40;;;2.30;;
31061;SDS011;17724;53.546;9.974;2022-07-29T04:24:51;10.10;;;2.67;;
31061;SDS011;17724;53.546;9.974;2022-07-29T04:28:51;8.43;;;2.30;;
31061;SDS011;17724;53.546;9.974;2022-07-29T04:32:51;7.63;;;1.87;;
31061;SDS011;17724;53.546;9.974;2022-07-29T04:36:52;8.80;;;2.53;;
31061;SDS011;17724;53.546;9.974;2022-07-29T04:40:52;9.10;;;2.30;;
31061;SDS011;17724;53.546;9.974;2022-07-29T04:44:53;7.70;;;2.37;;
31061;SDS011;17724;53.546;9.974;2022-07-29T04:48:53;9.20;;;2.00;;
31061;SDS011;17724;53.546;9.974;2022-07-29T04:52:54;9.93;;;2.87;;
31061;SDS011;17724;53.546;9.974;2022-07-29T04:56:54;7.90;;;1.80;;
31061;SDS011;17724;53.546;9.974;2022-07-29T05:00:55;8.10;;;2.20;;
31061;SDS011;17724;53.546;9.974;2022-07-29T05:04:55;7.53;;;2.10;;
31061;SDS011;17724;53.546;9.974;2022-07-29T05:08:55;7.67;;;2.27;;
31061;SDS011;17724;53.546;9.974;2022-07-29T05:12:56;8.23;;;2.00;;
31061;SDS011;17724;53.546;9.974;2022-07-29T05:16:56;9.83;;;2.20;;
31061;SDS011;17724;53.546;9.974;2022-07-29T05:20:57;8.70;;;2.23;;
31061;SDS011;17724;53.546;9.974;2022-07-29T05:24:57;7.33;;;2.20;;
31061;SDS011;17724;53.546;9.974;2022-07-29T05:28:58;10.17;;;2.67;;
31061;SDS011;17724;53.546;9.974;2022-07-29T05:32:58;9.30;;;2.10;;
31061;SDS011;17724;53.546;9.974;2022-07-29T05:36:58;10.40;;;2.23;;
31061;SDS011;17724;53.546;9.974;2022-07-29T05:40:59;8.90;;;2.40;;
31061;SDS011;17724;53.546;9.974;2022-07-29T05:44:59;9.10;;;2.40;;
31061;SDS011;17724;53.546;9.974;2022-07-29T05:49:00;8.80;;;2.00;;
31061;SDS011;17724;53.546;9.974;2022-07-29T05:53:02;7.20;;;2.13;;
31061;SDS011;17724;53.546;9.974;2022-07-29T05:57:03;10.63;;;2.50;;
31061;SDS011;17724;53.546;9.974;2022-07-29T06:01:05;8.20;;;2.00;;
31061;SDS011;17724;53.546;9.974;2022-07-29T06:05:06;9.13;;;2.40;;
31061;SDS011;17724;53.546;9.974;2022-07-29T06:09:07;10.10;;;2.40;;
31061;SDS011;17724;53.546;9.974;2022-07-29T06:13:08;8.63;;;2.03;;
31061;SDS011;17724;53.546;9.974;2022-07-29T06:17:08;8.73;;;2.43;;
31061;SDS011;17724;53.546;9.974;2022-07-29T06:21:08;8.03;;;2.30;;
31061;SDS011;17724;53.546;9.974;2022-07-29T06:25:12;9.20;;;2.33;;
31061;SDS011;17724;53.546;9.974;2022-07-29T06:29:12;13.90;;;2.27;;
31061;SDS011;17724;53.546;9.974;2022-07-29T06:33:16;8.83;;;2.50;;
31061;SDS011;17724;53.546;9.974;2022-07-29T06:37:19;8.30;;;2.23;;
31061;SDS011;17724;53.546;9.974;2022-07-29T06:41:19;11.70;;;2.73;;
31061;SDS011;17724;53.546;9.974;2022-07-29T06:45:20;9.77;;;2.20;;
31061;SDS011;17724;53.546;9.974;2022-07-29T06:49:20;8.57;;;2.40;;
31061;SDS011;17724;53.546;9.974;2022-07-29T06:53:20;8.57;;;2.30;;
31061;SDS011;17724;53.546;9.974;2022-07-29T06:57:21;10.50;;;2.30;;
31061;SDS011;17724;53.546;9.974;2022-07-29T07:01:22;7.07;;;2.00;;
31061;SDS011;17724;53.546;9.974;2022-07-29T07:05:22;10.57;;;2.50;;
31061;SDS011;17724;53.546;9.974;2022-07-29T07:09:23;7.77;;;2.07;;
31061;SDS011;17724;53.546;9.974;2022-07-29T07:13:23;8.80;;;2.70;;
31061;SDS011;17724;53.546;9.974;2022-07-29T07:17:24;7.87;;;2.17;;
31061;SDS011;17724;53.546;9.974;2022-07-29T07:21:24;9.87;;;2.73;;
31061;SDS011;17724;53.546;9.974;2022-07-29T07:25:25;11.83;;;2.63;;
31061;SDS011;17724;53.546;9.974;2022-07-29T07:29:25;7.00;;;1.97;;
31061;SDS011;17724;53.546;9.974;2022-07-29T07:33:25;12.00;;;2.80;;
31061;SDS011;17724;53.546;9.974;2022-07-29T07:37:26;8.17;;;2.87;;
31061;SDS011;17724;53.546;9.974;2022-07-29T07:41:26;9.00;;;2.47;;
31061;SDS011;17724;53.546;9.974;2022-07-29T07:45:27;7.70;;;2.20;;
31061;SDS011;17724;53.546;9.974;2022-07-29T07:49:30;8.63;;;2.17;;
31061;SDS011;17724;53.546;9.974;2022-07-29T07:53:30;9.70;;;2.40;;
31061;SDS011;17724;53.546;9.974;2022-07-29T07:57:30;8.00;;;2.50;;
31061;SDS011;17724;53.546;9.974;2022-07-29T08:01:31;8.70;;;2.63;;
31061;SDS011;17724;53.546;9.974;2022-07-29T08:05:31;8.27;;;2.40;;
31061;SDS011;17724;53.546;9.974;2022-07-29T08:09:32;8.93;;;2.53;;
31061;SDS011;17724;53.546;9.974;2022-07-29T08:13:33;8.60;;;2.20;;
31061;SDS011;17724;53.546;9.974;2022-07-29T08:17:33;9.40;;;3.03;;
31061;SDS011;17724;53.546;9.974;2022-07-29T08:21:34;9.47;;;2.60;;
31061;SDS011;17724;53.546;9.974;2022-07-29T08:25:35;7.93;;;2.10;;
31061;SDS011;17724;53.546;9.974;2022-07-29T08:29:38;8.97;;;3.70;;
31061;SDS011;17724;53.546;9.974;2022-07-29T08:33:39;7.50;;;2.50;;
31061;SDS011;17724;53.546;9.974;2022-07-29T08:37:39;7.60;;;2.03;;
31061;SDS011;17724;53.546;9.974;2022-07-29T08:41:40;8.07;;;2.50;;
31061;SDS011;17724;53.546;9.974;2022-07-29T08:45:44;13.80;;;3.47;;
31061;SDS011;17724;53.546;9.974;2022-07-29T08:49:46;8.07;;;2.30;;
31061;SDS011;17724;53.546;9.974;2022-07-29T08:53:48;9.03;;;1.73;;
31061;SDS011;17724;53.546;9.974;2022-07-29T08:57:50;8.40;;;2.60;;
31061;SDS011;17724;53.546;9.974;2022-07-29T09:01:51;10.63;;;2.40;;
31061;SDS011;17724;53.546;9.974;2022-07-29T09:05:53;9.70;;;2.50;;
31061;SDS011;17724;53.546;9.974;2022-07-29T09:09:54;15.13;;;2.93;;
31061;SDS011;17724;53.546;9.974;2022-07-29T09:13:55;9.00;;;2.40;;
31061;SDS011;17724;53.546;9.974;2022-07-29T09:17:55;10.00;;;2.50;;
31061;SDS011;17724;53.546;9.974;2022-07-29T09:21:59;11.20;;;2.57;;
31061;SDS011;17724;53.546;9.974;2022-07-29T09:26:04;8.97;;;2.30;;
31061;SDS011;17724;53.546;9.974;2022-07-29T09:30:06;7.83;;;1.77;;
31061;SDS011;17724;53.546;9.974;2022-07-29T09:34:10;9.70;;;2.50;;
31061;SDS011;17724;53.546;9.974;2022-07-29T09:38:13;7.23;;;2.00;;
31061;SDS011;17724;53.546;9.974;2022-07-29T09:42:13;11.67;;;2.63;;
31061;SDS011;17724;53.546;9.974;2022-07-29T09:46:28;10.47;;;2.30;;
31061;SDS011;17724;53.546;9.974;2022-07-29T09:50:38;7.90;;;1.80;;
31061;SDS011;17724;53.546;9.974;2022-07-29T09:54:40;7.37;;;1.90;;
31061;SDS011;17724;53.546;9.974;2022-07-29T09:58:40;8.13;;;1.90;;
31061;SDS011;17724;53.546;9.974;2022-07-29T10:02:41;7.10;;;1.90;;
31061;SDS011;17724;53.546;9.974;2022-07-29T10:06:56;8.60;;;2.20;;
31061;SDS011;17724;53.546;9.974;2022-07-29T10:11:14;8.13;;;2.07;;
31061;SDS011;17724;53.546;9.974;2022-07-29T10:15:16;9.67;;;2.10;;
31061;SDS011;17724;53.546;9.974;2022-07-29T10:19:16;9.60;;;2.13;;
31061;SDS011;17724;53.546;9.974;2022-07-29T10:23:17;7.70;;;1.63;;
31061;SDS011;17724;53.546;9.974;2022-07-29T10:27:17;10.17;;;1.80;;
31061;SDS011;17724;53.546;9.974;2022-07-29T10:31:21;8.37;;;2.40;;
31061;SDS011;17724;53.546;9.974;2022-07-29T10:40:15;7.77;;;2.03;;
31061;SDS011;17724;53.546;9.974;2022-07-29T10:44:52;8.70;;;1.97;;
31061;SDS011;17724;53.546;9.974;2022-07-29T10:53:09;8.37;;;1.83;;
31061;SDS011;17724;53.546;9.974;2022-07-29T11:01:34;8.50;;;1.53;;
31061;SDS011;17724;53.546;9.974;2022-07-29T11:14:13;7.97;;;1.60;;
31061;SDS011;17724;53.546;9.974;2022-07-29T11:18:14;9.50;;;2.10;;
31061;SDS011;17724;53.546;9.974;2022-07-29T11:22:33;7.77;;;1.37;;
31061;SDS011;17724;53.546;9.974;2022-07-29T11:26:35;8.00;;;1.80;;
31061;SDS011;17724;53.546;9.974;2022-07-29T11:30:49;7.90;;;2.00;;
31061;SDS011;17724;53.546;9.974;2022-07-29T11:35:36;8.57;;;1.50;;
31061;SDS011;17724;53.546;9.974;2022-07-29T11:39:26;8.20;;;1.53;;
31061;SDS011;17724;53.546;9.974;2022-07-29T11:43:46;6.90;;;1.43;;
31061;SDS011;17724;53.546;9.974;2022-07-29T11:47:58;6.97;;;1.73;;
31061;SDS011;17724;53.546;9.974;2022-07-29T11:51:59;9.10;;;2.20;;
31061;SDS011;17724;53.546;9.974;2022-07-29T11:56:02;8.63;;;1.80;;
31061;SDS011;17724;53.546;9.974;2022-07-29T12:00:05;8.60;;;1.73;;
31061;SDS011;17724;53.546;9.974;2022-07-29T12:04:08;7.13;;;1.60;;
31061;SDS011;17724;53.546;9.974;2022-07-29T12:08:16;8.13;;;1.87;;
31061;SDS011;17724;53.546;9.974;2022-07-29T12:12:20;9.93;;;2.50;;
31061;SDS011;17724;53.546;9.974;2022-07-29T12:16:21;8.23;;;1.90;;
31061;SDS011;17724;53.546;9.974;2022-07-29T12:20:26;7.90;;;1.73;;
31061;SDS011;17724;53.546;9.974;2022-07-29T12:24:41;8.77;;;1.70;;
31061;SDS011;17724;53.546;9.974;2022-07-29T12:28:43;8.00;;;1.30;;
31061;SDS011;17724;53.546;9.974;2022-07-29T12:32:45;6.83;;;1.63;;
31061;SDS011;17724;53.546;9.974;2022-07-29T12:36:47;9.30;;;1.80;;
31061;SDS011;17724;53.546;9.974;2022-07-29T12:40:48;7.80;;;2.10;;
31061;SDS011;17724;53.546;9.974;2022-07-29T12:44:51;9.20;;;2.23;;
31061;SDS011;17724;53.546;9.974;2022-07-29T12:48:53;10.20;;;1.60;;
31061;SDS011;17724;53.546;9.974;2022-07-29T12:52:54;8.87;;;1.43;;
31061;SDS011;17724;53.546;9.974;2022-07-29T12:57:09;10.03;;;2.00;;
31061;SDS011;17724;53.546;9.974;2022-07-29T13:05:12;7.43;;;2.10;;
31061;SDS011;17724;53.546;9.974;2022-07-29T13:09:14;7.90;;;1.70;;
31061;SDS011;17724;53.546;9.974;2022-07-29T13:13:16;9.27;;;2.87;;
31061;SDS011;17724;53.546;9.974;2022-07-29T13:21:17;8.60;;;2.03;;
31061;SDS011;17724;53.546;9.974;2022-07-29T13:25:24;9.40;;;2.30;;
31061;SDS011;17724;53.546;9.974;2022-07-29T13:29:29;8.10;;;1.80;;
31061;SDS011;17724;53.546;9.974;2022-07-29T13:33:29;8.63;;;2.50;;
31061;SDS011;17724;53.546;9.974;2022-07-29T13:37:30;8.10;;;2.57;;
31061;SDS011;17724;53.546;9.974;2022-07-29T13:41:32;8.30;;;1.90;;
31061;SDS011;17724;53.546;9.974;2022-07-29T13:45:33;7.20;;;2.10;;
31061;SDS011;17724;53.546;9.974;2022-07-29T13:49:33;8.50;;;2.20;;
31061;SDS011;17724;53.546;9.974;2022-07-29T13:53:35;7.93;;;2.30;;
31061;SDS011;17724;53.546;9.974;2022-07-29T13:57:35;10.40;;;2.90;;
31061;SDS011;17724;53.546;9.974;2022-07-29T14:01:36;9.00;;;2.20;;
31061;SDS011;17724;53.546;9.974;2022-07-29T14:05:36;8.40;;;2.87;;
31061;SDS011;17724;53.546;9.974;2022-07-29T14:09:37;8.63;;;2.97;;
31061;SDS011;17724;53.546;9.974;2022-07-29T14:13:38;11.30;;;2.47;;
31061;SDS011;17724;53.546;9.974;2022-07-29T14:17:38;14.23;;;3.83;;
31061;SDS011;17724;53.546;9.974;2022-07-29T14:21:39;8.70;;;3.10;;
31061;SDS011;17724;53.546;9.974;2022-07-29T14:25:40;13.33;;;3.30;;
31061;SDS011;17724;53.546;9.974;2022-07-29T14:29:40;13.17;;;7.00;;
31061;SDS011;17724;53.546;9.974;2022-07-29T14:33:41;10.27;;;3.60;;
31061;SDS011;17724;53.546;9.974;2022-07-29T14:37:42;10.23;;;2.30;;
31061;SDS011;17724;53.546;9.974;2022-07-29T14:41:43;13.67;;;8.57;;
31061;SDS011;17724;53.546;9.974;2022-07-29T14:45:43;12.67;;;3.63;;
31061;SDS011;17724;53.546;9.974;2022-07-29T14:49:44;8.80;;;2.60;;
31061;SDS011;17724;53.546;9.974;2022-07-29T14:53:44;9.83;;;3.77;;
31061;SDS011;17724;53.546;9.974;2022-07-29T14:57:45;10.47;;;2.20;;
31061;SDS011;17724;53.546;9.974;2022-07-29T15:01:45;10.20;;;2.77;;
31061;SDS011;17724;53.546;9.974;2022-07-29T15:05:46;11.17;;;4.90;;
31061;SDS011;17724;53.546;9.974;2022-07-29T15:09:46;7.80;;;2.40;;
31061;SDS011;17724;53.546;9.974;2022-07-29T15:13:46;11.30;;;6.40;;
31061;SDS011;17724;53.546;9.974;2022-07-29T15:17:47;8.43;;;2.50;;
31061;SDS011;17724;53.546;9.974;2022-07-29T15:21:48;9.17;;;2.60;;
31061;SDS011;17724;53.546;9.974;2022-07-29T15:25:49;11.27;;;6.33;;
31061;SDS011;17724;53.546;9.974;2022-07-29T15:29:49;13.57;;;4.27;;
31061;SDS011;17724;53.546;9.974;2022-07-29T15:33:50;10.10;;;4.40;;
31061;SDS011;17724;53.546;9.974;2022-07-29T15:37:50;9.77;;;2.60;;
31061;SDS011;17724;53.546;9.974;2022-07-29T15:41:50;9.37;;;2.37;;
31061;SDS011;17724;53.546;9.974;2022-07-29T15:45:51;9.13;;;3.40;;
31061;SDS011;17724;53.546;9.974;2022-07-29T15:50:10;10.20;;;4.07;;
31061;SDS011;17724;53.546;9.974;2022-07-29T15:54:15;12.37;;;4.67;;
31061;SDS011;17724;53.546;9.974;2022-07-29T15:58:16;12.13;;;6.43;;
31061;SDS011;17724;53.546;9.974;2022-07-29T16:02:17;21.60;;;18.37;;
31061;SDS011;17724;53.546;9.974;2022-07-29T16:06:23;12.50;;;6.70;;
31061;SDS011;17724;53.546;9.974;2022-07-29T16:10:24;16.60;;;11.03;;
31061;SDS011;17724;53.546;9.974;2022-07-29T16:14:25;18.33;;;5.90;;
31061;SDS011;17724;53.546;9.974;2022-07-29T16:18:25;10.40;;;5.77;;
31061;SDS011;17724;53.546;9.974;2022-07-29T16:22:26;8.87;;;4.13;;
31061;SDS011;17724;53.546;9.974;2022-07-29T16:26:26;12.83;;;5.37;;
31061;SDS011;17724;53.546;9.974;2022-07-29T16:30:27;15.93;;;6.40;;
31061;SDS011;17724;53.546;9.974;2022-07-29T16:34:27;10.57;;;5.67;;
31061;SDS011;17724;53.546;9.974;2022-07-29T16:38:29;24.80;;;20.33;;
31061;SDS011;17724;53.546;9.974;2022-07-29T16:42:30;28.97;;;15.80;;
31061;SDS011;17724;53.546;9.974;2022-07-29T16:46:30;15.43;;;10.10;;
31061;SDS011;17724;53.546;9.974;2022-07-29T16:50:37;13.60;;;7.83;;
31061;SDS011;17724;53.546;9.974;2022-07-29T16:54:37;11.33;;;6.20;;
31061;SDS011;17724;53.546;9.974;2022-07-29T16:58:37;16.70;;;9.30;;
31061;SDS011;17724;53.546;9.974;2022-07-29T17:02:38;17.53;;;13.80;;
31061;SDS011;17724;53.546;9.974;2022-07-29T17:06:39;14.03;;;6.10;;
31061;SDS011;17724;53.546;9.974;2022-07-29T17:10:40;11.30;;;5.90;;
31061;SDS011;17724;53.546;9.974;2022-07-29T17:14:40;9.77;;;4.53;;
31061;SDS011;17724;53.546;9.974;2022-07-29T17:18:41;20.90;;;12.90;;
31061;SDS011;17724;53.546;9.974;2022-07-29T17:22:41;13.40;;;8.17;;
31061;SDS011;17724;53.546;9.974;2022-07-29T17:26:42;10.73;;;5.07;;
31061;SDS011;17724;53.546;9.974;2022-07-29T17:30:43;11.83;;;6.23;;
31061;SDS011;17724;53.546;9.974;2022-07-29T17:34:44;10.07;;;4.13;;
31061;SDS011;17724;53.546;9.974;2022-07-29T17:38:44;11.83;;;6.40;;
31061;SDS011;17724;53.546;9.974;2022-07-29T17:42:44;19.30;;;13.60;;
31061;SDS011;17724;53.546;9.974;2022-07-29T17:46:45;14.10;;;8.53;;
31061;SDS011;17724;53.546;9.974;2022-07-29T17:50:46;23.97;;;14.77;;
31061;SDS011;17724;53.546;9.974;2022-07-29T17:54:47;32.00;;;25.57;;
31061;SDS011;17724;53.546;9.974;2022-07-29T17:58:48;12.33;;;5.37;;
31061;SDS011;17724;53.546;9.974;2022-07-29T18:02:49;11.53;;;7.37;;
31061;SDS011;17724;53.546;9.974;2022-07-29T18:06:50;11.23;;;3.60;;
31061;SDS011;17724;53.546;9.974;2022-07-29T18:10:50;19.90;;;15.33;;
31061;SDS011;17724;53.546;9.974;2022-07-29T18:14:51;21.47;;;14.23;;
31061;SDS011;17724;53.546;9.974;2022-07-29T18:18:51;17.17;;;12.10;;
31061;SDS011;17724;53.546;9.974;2022-07-29T18:22:52;16.40;;;12.00;;
31061;SDS011;17724;53.546;9.974;2022-07-29T18:26:53;19.10;;;12.27;;
31061;SDS011;17724;53.546;9.974;2022-07-29T18:30:53;11.90;;;8.07;;
31061;SDS011;17724;53.546;9.974;2022-07-29T18:34:54;12.07;;;5.97;;
31061;SDS011;17724;53.546;9.974;2022-07-29T18:38:54;21.37;;;13.60;;
31061;SDS011;17724;53.546;9.974;2022-07-29T18:42:55;25.73;;;20.80;;
31061;SDS011;17724;53.546;9.974;2022-07-29T18:46:55;15.37;;;9.90;;
31061;SDS011;17724;53.546;9.974;2022-07-29T18:50:56;18.13;;;10.23;;
31061;SDS011;17724;53.546;9.974;2022-07-29T18:54:56;12.80;;;7.20;;
31061;SDS011;17724;53.546;9.974;2022-07-29T18:58:59;16.57;;;13.00;;
31061;SDS011;17724;53.546;9.974;2022-07-29T19:03:00;24.00;;;16.80;;
31061;SDS011;17724;53.546;9.974;2022-07-29T19:07:02;10.40;;;4.90;;
31061;SDS011;17724;53.546;9.974;2022-07-29T19:11:02;17.77;;;7.33;;
31061;SDS011;17724;53.546;9.974;2022-07-29T19:15:03;10.20;;;3.87;;
31061;SDS011;17724;53.546;9.974;2022-07-29T19:19:04;12.43;;;7.10;;
31061;SDS011;17724;53.546;9.974;2022-07-29T19:23:09;13.60;;;5.03;;
31061;SDS011;17724;53.546;9.974;2022-07-29T19:27:09;13.07;;;4.53;;
31061;SDS011;17724;53.546;9.974;2022-07-29T19:31:10;10.87;;;4.10;;
31061;SDS011;17724;53.546;9.974;2022-07-29T19:35:10;11.27;;;6.93;;
31061;SDS011;17724;53.546;9.974;2022-07-29T19:39:31;9.20;;;3.00;;
31061;SDS011;17724;53.546;9.974;2022-07-29T19:43:32;12.63;;;5.70;;
31061;SDS011;17724;53.546;9.974;2022-07-29T19:47:33;9.73;;;4.23;;
31061;SDS011;17724;53.546;9.974;2022-07-29T19:51:34;11.37;;;6.00;;
31061;SDS011;17724;53.546;9.974;2022-07-29T19:55:35;9.93;;;4.00;;
31061;SDS011;17724;53.546;9.974;2022-07-29T19:59:35;10.17;;;4.00;;
31061;SDS011;17724;53.546;9.974;2022-07-29T20:03:36;12.30;;;3.70;;
31061;SDS011;17724;53.546;9.974;2022-07-29T20:07:38;7.80;;;3.37;;
31061;SDS011;17724;53.546;9.974;2022-07-29T20:11:39;10.00;;;4.60;;
31061;SDS011;17724;53.546;9.974;2022-07-29T20:15:39;22.77;;;13.00;;
31061;SDS011;17724;53.546;9.974;2022-07-29T20:19:40;18.30;;;13.07;;
31061;SDS011;17724;53.546;9.974;2022-07-29T20:23:41;14.47;;;7.07;;
31061;SDS011;17724;53.546;9.974;2022-07-29T20:27:42;15.70;;;10.23;;
31061;SDS011;17724;53.546;9.974;2022-07-29T20:31:42;10.37;;;4.40;;
31061;SDS011;17724;53.546;9.974;2022-07-29T20:35:43;9.50;;;3.70;;
31061;SDS011;17724;53.546;9.974;2022-07-29T20:39:43;9.10;;;4.07;;
31061;SDS011;17724;53.546;9.974;2022-07-29T20:43:46;11.13;;;4.40;;
31061;SDS011;17724;53.546;9.974;2022-07-29T20:47:50;10.60;;;3.27;;
31061;SDS011;17724;53.546;9.974;2022-07-29T20:51:51;11.43;;;2.83;;
31061;SDS011;17724;53.546;9.974;2022-07-29T20:55:52;7.43;;;2.37;;
31061;SDS011;17724;53.546;9.974;2022-07-29T20:59:52;9.70;;;2.73;;
31061;SDS011;17724;53.546;9.974;2022-07-29T21:03:52;8.57;;;3.07;;
31061;SDS011;17724;53.546;9.974;2022-07-29T21:07:53;10.30;;;3.10;;
31061;SDS011;17724;53.546;9.974;2022-07-29T21:11:53;8.80;;;2.50;;
31061;SDS011;17724;53.546;9.974;2022-07-29T21:15:54;8.30;;;2.40;;
31061;SDS011;17724;53.546;9.974;2022-07-29T21:20:00;8.17;;;2.60;;
31061;SDS011;17724;53.546;9.974;2022-07-29T21:24:02;9.97;;;3.17;;
31061;SDS011;17724;53.546;9.974;2022-07-29T21:28:03;8.93;;;2.40;;
31061;SDS011;17724;53.546;9.974;2022-07-29T21:32:22;9.30;;;2.77;;
31061;SDS011;17724;53.546;9.974;2022-07-29T21:36:23;8.30;;;2.53;;
31061;SDS011;17724;53.546;9.974;2022-07-29T21:40:23;9.70;;;3.30;;
31061;SDS011;17724;53.546;9.974;2022-07-29T21:44:24;9.93;;;2.70;;
31061;SDS011;17724;53.546;9.974;2022-07-29T21:48:25;8.27;;;2.67;;
31061;SDS011;17724;53.546;9.974;2022-07-29T21:52:26;9.60;;;3.67;;
31061;SDS011;17724;53.546;9.974;2022-07-29T21:56:28;8.40;;;2.83;;
31061;SDS011;17724;53.546;9.974;2022-07-29T22:00:28;11.57;;;2.80;;
31061;SDS011;17724;53.546;9.974;2022-07-29T22:04:38;8.40;;;2.43;;
31061;SDS011;17724;53.546;9.974;2022-07-29T22:08:38;8.40;;;2.47;;
31061;SDS011;17724;53.546;9.974;2022-07-29T22:12:40;9.33;;;2.33;;
31061;SDS011;17724;53.546;9.974;2022-07-29T22:16:41;8.97;;;2.10;;
31061;SDS011;17724;53.546;9.974;2022-07-29T22:20:41;9.60;;;3.00;;
31061;SDS011;17724;53.546;9.974;2022-07-29T22:24:41;9.37;;;2.47;;
31061;SDS011;17724;53.546;9.974;2022-07-29T22:28:42;12.33;;;3.50;;
31061;SDS011;17724;53.546;9.974;2022-07-29T22:32:42;10.27;;;2.40;;
31061;SDS011;17724;53.546;9.974;2022-07-29T22:36:43;9.20;;;2.03;;
31061;SDS011;17724;53.546;9.974;2022-07-29T22:40:43;8.83;;;2.60;;
31061;SDS011;17724;53.546;9.974;2022-07-29T22:44:44;8.57;;;2.80;;
31061;SDS011;17724;53.546;9.974;2022-07-29T22:48:44;10.97;;;2.60;;
31061;SDS011;17724;53.546;9.974;2022-07-29T22:52:45;11.80;;;2.20;;
31061;SDS011;17724;53.546;9.974;2022-07-29T22:56:45;9.27;;;2.30;;
31061;SDS011;17724;53.546;9.974;2022-07-29T23:00:46;9.13;;;2.67;;
31061;SDS011;17724;53.546;9.974;2022-07-29T23:04:46;9.50;;;2.70;;
31061;SDS011;17724;53.546;9.974;2022-07-29T23:08:46;9.33;;;2.30;;
31061;SDS011;17724;53.546;9.974;2022-07-29T23:12:47;9.47;;;2.50;;
31061;SDS011;17724;53.546;9.974;2022-07-29T23:16:47;10.63;;;2.50;;
31061;SDS011;17724;53.546;9.974;2022-07-29T23:20:48;9.53;;;3.00;;
31061;SDS011;17724;53.546;9.974;2022-07-29T23:24:48;9.00;;;2.73;;
31061;SDS011;17724;53.546;9.974;2022-07-29T23:28:49;8.67;;;2.40;;
31061;SDS011;17724;53.546;9.974;2022-07-29T23:32:49;8.70;;;2.70;;
31061;SDS011;17724;53.546;9.974;2022-07-29T23:36:50;8.83;;;2.70;;
31061;SDS011;17724;53.546;9.974;2022-07-29T23:40:51;9.83;;;2.57;;
31061;SDS011;17724;53.546;9.974;2022-07-29T23:44:51;8.60;;;2.80;;
31061;SDS011;17724;53.546;9.974;2022-07-29T23:48:52;9.30;;;2.87;;
31061;SDS011;17724;53.546;9.974;2022-07-29T23:52:52;8.23;;;2.43;;
31061;SDS011;17724;53.546;9.974;2022-07-29T23:56:52;9.73;;;2.60;;
